Time;durP1;ratioP1;P1;durP2;ratioP2;P2;SDS_P1;SDS_P2;PMS_P1;PMS_P2;Temp;Humidity;BMP_temperature;BMP_pressure;BME280_temperature;BME280_humidity;BME280_pressure;Samples;Min_cycle;Max_cycle;Signal;HPM_P1;HPM_P2
2022/12/27 00:02:12;;;;;;;;;;;;;;;18.24;47.21;101859.28;5149912;27;19927;-56
2022/12/27 00:04:38;;;;;;;;;;;;;;;18.25;47.06;101864.53;5151040;27;19930;-56
2022/12/27 00:07:03;;;;;;;;;;;;;;;18.25;47.24;101871.97;5151531;27;20278;-56
2022/12/27 00:09:29;;;;;;;;;;;;;;;18.24;47.02;101873.91;5133471;27;19931;-56
2022/12/27 00:11:55;;;;;;;;;;;;;;;18.24;47.18;101868.38;5152022;27;19926;-56
2022/12/27 00:14:25;;;;;;;;;;;;;;;18.25;47.19;101871.97;5151664;27;19974;-56
2022/12/27 00:16:50;;;;;;;;;;;;;;;18.24;47.30;101878.59;5152031;27;19934;-56
2022/12/27 00:19:16;;;;;;;;;;;;;;;18.24;47.15;101879.41;5151551;27;19930;-55
2022/12/27 00:21:42;;;;;;;;;;;;;;;18.25;47.20;101883.00;5151963;27;19927;-56
2022/12/27 00:24:08;;;;;;;;;;;;;;;18.25;47.00;101881.09;5130750;27;19928;-56
2022/12/27 00:26:34;;;;;;;;;;;;;;;18.25;47.21;101874.72;5130802;28;19945;-55
2022/12/27 00:28:59;;;;;;;;;;;;;;;18.25;47.33;101880.25;5143243;27;19942;-56
2022/12/27 00:31:25;;;;;;;;;;;;;;;18.24;47.21;101884.94;5151616;27;19927;-56
2022/12/27 00:33:52;;;;;;;;;;;;;;;18.25;47.05;101877.50;5133088;27;19928;-56
2022/12/27 00:36:18;;;;;;;;;;;;;;;18.24;47.00;101884.09;5112183;28;19927;-56
2022/12/27 00:38:44;;;;;;;;;;;;;;;18.24;47.08;101882.19;5130746;28;20078;-56
2022/12/27 00:41:09;;;;;;;;;;;;;;;18.25;47.17;101888.53;5112609;28;20414;-56
2022/12/27 00:43:35;;;;;;;;;;;;;;;18.25;47.07;101885.75;5130529;27;19927;-56
2022/12/27 00:46:01;;;;;;;;;;;;;;;18.25;47.03;101894.03;5112493;28;20328;-56
2022/12/27 00:48:26;;;;;;;;;;;;;;;18.24;46.99;101895.97;5112680;28;19923;-56
2022/12/27 00:51:10;;;;;;;;;;;;;;;18.24;47.12;101890.44;5112370;28;19927;-56
2022/12/27 00:53:35;;;;;;;;;;;;;;;18.25;47.08;101889.34;5111959;28;20185;-55
2022/12/27 00:56:05;;;;;;;;;;;;;;;18.25;47.01;101883.84;5130534;28;20011;-57
2022/12/27 00:58:30;;;;;;;;;;;;;;;18.25;47.11;101889.34;5138556;27;19927;-56
2022/12/27 01:01:03;;;;;;;;;;;;;;;18.27;46.99;101892.72;5151184;27;19923;-56
2022/12/27 01:03:29;;;;;;;;;;;;;;;18.27;47.09;101889.13;5132362;27;19938;-56
2022/12/27 01:05:54;;;;;;;;;;;;;;;18.26;47.11;101887.44;5151200;27;19923;-56
2022/12/27 01:08:21;;;;;;;;;;;;;;;18.25;47.02;101891.28;5151376;27;20374;-56
2022/12/27 01:10:47;;;;;;;;;;;;;;;18.25;47.14;101892.09;5150975;27;19923;-56
2022/12/27 01:13:12;;;;;;;;;;;;;;;18.26;47.28;101903.97;5151106;27;19924;-56
2022/12/27 01:15:40;;;;;;;;;;;;;;;18.25;47.04;101903.13;5151106;27;20131;-56
2022/12/27 01:18:05;;;;;;;;;;;;;;;18.26;47.19;101901.22;5136171;27;19931;-56
2022/12/27 01:20:31;;;;;;;;;;;;;;;18.26;47.53;101909.47;5154477;27;19953;-56
2022/12/27 01:22:56;;;;;;;;;;;;;;;18.25;47.15;101908.66;5153972;27;19923;-55
2022/12/27 01:25:22;;;;;;;;;;;;;;;18.25;46.93;101907.81;5154490;27;20271;-56
2022/12/27 01:27:47;;;;;;;;;;;;;;;18.25;47.08;101911.41;5154423;27;19923;-56
2022/12/27 01:30:13;;;;;;;;;;;;;;;18.26;46.90;101913.09;5154467;27;19930;-56
2022/12/27 01:32:39;;;;;;;;;;;;;;;18.26;46.97;101912.25;5154554;27;19930;-56
2022/12/27 01:35:04;;;;;;;;;;;;;;;18.25;46.96;101918.84;5154098;27;19923;-56
2022/12/27 01:37:30;;;;;;;;;;;;;;;18.25;47.10;101916.94;5154519;27;19970;-56
2022/12/27 01:39:55;;;;;;;;;;;;;;;18.25;47.05;101924.38;5154446;27;19923;-56
2022/12/27 01:42:52;;;;;;;;;;;;;;;18.25;46.95;101927.97;5154242;27;19927;-56
2022/12/27 01:45:12;;;;;;;;;;;;;;;18.25;47.11;101936.22;5117804;28;19962;-56
2022/12/27 01:47:54;;;;;;;;;;;;;;;18.26;46.93;101937.06;5133743;28;19934;-55
2022/12/27 01:50:29;;;;;;;;;;;;;;;18.26;46.86;101937.06;5133216;28;20348;-56
2022/12/27 01:53:02;;;;;;;;;;;;;;;18.25;47.10;101940.91;5143570;27;20366;-56
2022/12/27 01:55:48;;;;;;;;;;;;;;;18.25;46.94;101946.44;5153946;27;19923;-56
2022/12/27 01:58:16;;;;;;;;;;;;;;;18.25;46.90;101950.00;5138352;27;19961;-56
2022/12/27 02:00:42;;;;;;;;;;;;;;;18.25;47.11;101952.78;5154693;27;20010;-56
2022/12/27 02:03:08;;;;;;;;;;;;;;;18.24;47.05;101945.59;5150434;27;19980;-56
2022/12/27 02:05:33;;;;;;;;;;;;;;;18.25;47.00;101955.53;5133295;28;19923;-56
2022/12/27 02:08:16;;;;;;;;;;;;;;;18.24;46.71;101962.13;5133250;28;20368;-55
2022/12/27 02:10:41;;;;;;;;;;;;;;;18.25;46.92;101960.22;5114889;28;19935;-56
2022/12/27 02:13:07;;;;;;;;;;;;;;;18.25;47.05;101958.28;5114621;27;19924;-56
2022/12/27 02:15:32;;;;;;;;;;;;;;;18.25;46.95;101958.28;5132447;28;20336;-56
2022/12/27 02:17:58;;;;;;;;;;;;;;;18.26;46.89;101961.88;5133163;28;19923;-56
2022/12/27 02:20:24;;;;;;;;;;;;;;;18.25;46.94;101958.28;5133191;28;19923;-56
2022/12/27 02:31:07;;;;;;;;;;;;;;;18.25;47.07;101951.94;5190100;27;19929;-56
2022/12/27 02:33:33;;;;;;;;;;;;;;;18.25;46.99;101962.97;5170836;27;19933;-56
2022/12/27 02:36:00;;;;;;;;;;;;;;;18.25;47.00;101958.28;5171137;27;19968;-56
2022/12/27 02:38:29;;;;;;;;;;;;;;;18.26;47.13;101959.13;5189833;27;19962;-56
2022/12/27 02:53:08;;;;;;;;;;;;;;;18.25;46.99;101957.47;5146733;27;19945;-56
2022/12/27 02:55:27;;;;;;;;;;;;;;;18.25;47.05;101961.03;5173720;27;19938;-56
2022/12/27 02:58:13;;;;;;;;;;;;;;;18.25;46.78;101961.03;5170697;27;19977;-56
2022/12/27 03:04:04;;;;;;;;;;;;;;;18.25;46.78;101966.56;5139901;27;20271;-56
2022/12/27 03:06:39;;;;;;;;;;;;;;;18.25;47.06;101968.50;5152858;27;20018;-56
2022/12/27 03:09:07;;;;;;;;;;;;;;;18.25;46.79;101961.03;5168566;27;19923;-56
2022/12/27 03:17:13;;;;;;;;;;;;;;;18.26;46.79;101968.25;5152716;27;20390;-56
2022/12/27 03:25:30;;;;;;;;;;;;;;;18.25;47.11;101980.34;5152694;27;19956;-55
2022/12/27 03:33:28;;;;;;;;;;;;;;;18.25;47.02;101976.75;5137736;27;20367;-56
2022/12/27 03:38:45;;;;;;;;;;;;;;;18.26;46.85;101981.19;5137890;27;19931;-56
2022/12/27 03:43:59;;;;;;;;;;;;;;;18.25;46.98;101979.50;5135755;27;19931;-56
2022/12/27 03:46:33;;;;;;;;;;;;;;;18.26;46.85;101983.94;5133300;28;20269;-56
2022/12/27 03:49:19;;;;;;;;;;;;;;;18.27;46.91;101993.91;5115487;28;19927;-56
2022/12/27 03:51:46;;;;;;;;;;;;;;;18.26;47.03;101989.44;5117420;28;19992;-56
2022/12/27 03:54:17;;;;;;;;;;;;;;;18.26;46.94;101989.44;5143458;27;19923;-56
2022/12/27 03:56:42;;;;;;;;;;;;;;;18.27;46.80;101983.72;5153399;27;19923;-55
2022/12/27 03:59:08;;;;;;;;;;;;;;;18.25;46.90;101987.78;5152998;27;19930;-55
2022/12/27 04:01:34;;;;;;;;;;;;;;;18.25;46.93;101987.78;5153529;27;19965;-55
2022/12/27 04:03:59;;;;;;;;;;;;;;;18.25;46.78;101991.38;5153123;27;19923;-56
2022/12/27 04:06:25;;;;;;;;;;;;;;;18.26;46.83;101992.22;5153610;27;20039;-56
2022/12/27 04:36:25;;;;;;;;;;;;;;;18.25;46.80;101983.09;5116937;28;20007;-56
2022/12/27 04:38:51;;;;;;;;;;;;;;;18.25;46.80;101980.34;5131722;28;19924;-56
2022/12/27 04:55:10;;;;;;;;;;;;;;;18.26;46.80;101978.41;5102065;28;19970;-56
2022/12/27 04:57:36;;;;;;;;;;;;;;;18.25;46.80;101977.59;5113782;27;20023;-56
2022/12/27 05:02:48;;;;;;;;;;;;;;;18.26;46.68;102004.09;5127349;28;20543;-56
2022/12/27 05:05:13;;;;;;;;;;;;;;;18.25;46.72;102005.16;5131534;27;19927;-56
2022/12/27 05:15:56;;;;;;;;;;;;;;;18.26;46.80;102028.06;5116261;28;19928;-56
2022/12/27 05:18:23;;;;;;;;;;;;;;;18.25;46.79;102032.75;5113252;28;19930;-56
2022/12/27 05:20:48;;;;;;;;;;;;;;;18.27;46.71;102033.34;5112789;28;19967;-56
2022/12/27 05:25:59;;;;;;;;;;;;;;;18.24;46.72;102028.31;5115995;28;19962;-56
2022/12/27 05:28:25;;;;;;;;;;;;;;;18.25;46.89;102026.38;5132625;27;19924;-56
2022/12/27 05:30:50;;;;;;;;;;;;;;;18.25;46.68;102032.75;5150565;27;19927;-56
2022/12/27 05:33:16;;;;;;;;;;;;;;;18.25;46.78;102035.50;5138894;27;19949;-56
2022/12/27 05:35:42;;;;;;;;;;;;;;;18.25;46.76;102041.00;5130066;28;19931;-56
2022/12/27 05:38:08;;;;;;;;;;;;;;;18.25;46.72;102040.19;5112850;28;19950;-56
2022/12/27 05:40:33;;;;;;;;;;;;;;;18.25;46.72;102043.75;5137997;27;20264;-56
2022/12/27 05:42:59;;;;;;;;;;;;;;;18.26;46.84;102047.34;5134821;27;19977;-56
2022/12/27 05:45:25;;;;;;;;;;;;;;;18.25;46.89;102045.69;5133007;27;20279;-56
2022/12/27 05:47:51;;;;;;;;;;;;;;;18.26;46.68;102050.97;5152062;27;19927;-56
2022/12/27 05:50:17;;;;;;;;;;;;;;;18.26;46.83;102063.91;5151242;27;19983;-56
2022/12/27 05:52:43;;;;;;;;;;;;;;;18.25;47.07;102063.06;5133246;27;19987;-56
2022/12/27 05:55:08;;;;;;;;;;;;;;;18.26;46.70;102055.63;5150919;27;19923;-56
2022/12/27 05:57:34;;;;;;;;;;;;;;;18.26;46.78;102055.63;5151822;27;19923;-56
2022/12/27 05:59:59;;;;;;;;;;;;;;;18.26;46.80;102061.16;5151406;27;20320;-56
2022/12/27 06:02:25;;;;;;;;;;;;;;;18.25;46.88;102053.97;5151504;27;19948;-56
2022/12/27 06:04:51;;;;;;;;;;;;;;;18.26;46.75;102055.63;5150667;27;19935;-56
2022/12/27 06:07:16;;;;;;;;;;;;;;;18.25;46.86;102052.03;5151767;27;19927;-55
2022/12/27 06:09:42;;;;;;;;;;;;;;;18.26;46.81;102063.91;5150976;27;19930;-56
2022/12/27 06:12:07;;;;;;;;;;;;;;;18.26;46.95;102069.41;5132950;27;19931;-56
2022/12/27 06:14:33;;;;;;;;;;;;;;;18.26;46.67;102075.78;5136245;27;19930;-56
2022/12/27 06:16:58;;;;;;;;;;;;;;;18.28;46.78;102078.28;5112392;28;19928;-56
2022/12/27 06:19:24;;;;;;;;;;;;;;;18.27;46.84;102079.38;5130182;28;19930;-56
2022/12/27 06:21:50;;;;;;;;;;;;;;;18.26;46.75;102083.19;5130834;27;19924;-56
2022/12/27 06:24:15;;;;;;;;;;;;;;;18.27;46.80;102085.72;5129718;27;19927;-56
2022/12/27 06:26:41;;;;;;;;;;;;;;;18.27;46.69;102082.16;5130673;28;20267;-56
2022/12/27 06:29:08;;;;;;;;;;;;;;;18.27;46.82;102082.97;5143104;27;20001;-56
2022/12/27 06:31:34;;;;;;;;;;;;;;;18.26;46.76;102083.19;5150897;27;19962;-56
2022/12/27 06:33:59;;;;;;;;;;;;;;;18.26;46.77;102074.94;5132641;27;20317;-56
2022/12/27 06:36:26;;;;;;;;;;;;;;;18.26;46.76;102083.19;5130480;28;19958;-56
2022/12/27 06:38:51;;;;;;;;;;;;;;;18.25;46.35;102090.66;5130611;28;19971;-55
2022/12/27 06:41:17;;;;;;;;;;;;;;;18.26;46.60;102097.00;5143104;27;19931;-56
2022/12/27 06:43:43;;;;;;;;;;;;;;;18.26;46.77;102097.00;5131963;27;20447;-56
2022/12/27 06:46:10;;;;;;;;;;;;;;;18.25;46.62;102101.69;5132447;27;19923;-56
2022/12/27 06:48:43;;;;;;;;;;;;;;;18.25;46.60;102104.44;5150775;27;20170;-56
2022/12/27 06:51:09;;;;;;;;;;;;;;;18.27;46.65;102109.72;5150970;27;20499;-56
2022/12/27 06:53:35;;;;;;;;;;;;;;;18.27;46.80;102104.22;5131745;27;19961;-56
2022/12/27 06:56:03;;;;;;;;;;;;;;;18.25;46.59;102093.41;5132499;27;19931;-56
2022/12/27 06:58:28;;;;;;;;;;;;;;;18.25;46.69;102090.66;5150796;27;19974;-56
2022/12/27 07:00:54;;;;;;;;;;;;;;;18.26;46.77;102099.75;5150874;27;19923;-56
2022/12/27 07:03:19;;;;;;;;;;;;;;;18.26;46.66;102094.22;5150185;27;20371;-56
2022/12/27 07:05:45;;;;;;;;;;;;;;;18.25;46.70;102093.41;5150923;27;20305;-56
2022/12/27 07:08:11;;;;;;;;;;;;;;;18.26;46.65;102099.75;5150692;27;19946;-55
2022/12/27 07:10:36;;;;;;;;;;;;;;;18.26;46.63;102105.25;5150791;27;19927;-56
2022/12/27 07:13:02;;;;;;;;;;;;;;;18.26;46.78;102105.25;5147883;27;19923;-56
2022/12/27 07:15:28;;;;;;;;;;;;;;;18.25;46.67;102115.47;5129156;27;19947;-56
2022/12/27 07:17:53;;;;;;;;;;;;;;;18.26;46.52;102121.81;5133127;28;19927;-56
2022/12/27 07:20:19;;;;;;;;;;;;;;;18.27;46.62;102109.72;5133558;28;20184;-56
2022/12/27 07:22:44;;;;;;;;;;;;;;;18.27;46.65;102115.25;5132834;27;20463;-56
2022/12/27 07:25:10;;;;;;;;;;;;;;;18.25;46.42;102109.94;5132921;27;19927;-56
2022/12/27 07:27:36;;;;;;;;;;;;;;;18.25;46.71;102123.72;5133767;27;19988;-56
2022/12/27 07:30:02;;;;;;;;;;;;;;;18.27;46.79;102127.09;5154035;27;19923;-56
2022/12/27 07:32:28;;;;;;;;;;;;;;;18.27;46.67;102127.09;5147646;27;19923;-56
2022/12/27 07:34:53;;;;;;;;;;;;;;;18.25;46.68;102126.50;5132664;27;19924;-56
2022/12/27 07:37:19;;;;;;;;;;;;;;;18.27;46.59;102131.78;5133432;28;20248;-56
2022/12/27 07:39:45;;;;;;;;;;;;;;;18.26;46.77;102132.84;5133067;28;19924;-55
2022/12/27 07:42:10;;;;;;;;;;;;;;;18.26;46.26;102132.84;5168180;27;20011;-56
2022/12/27 07:44:36;;;;;;;;;;;;;;;18.26;46.77;102138.34;5132761;27;19968;-56
2022/12/27 07:47:01;;;;;;;;;;;;;;;18.26;46.69;102139.22;5133136;28;20279;-56
2022/12/27 07:49:27;;;;;;;;;;;;;;;18.26;46.60;102141.09;5132621;28;19923;-56
2022/12/27 07:51:53;;;;;;;;;;;;;;;18.26;46.57;102138.34;5132795;27;19946;-56
2022/12/27 07:54:18;;;;;;;;;;;;;;;18.26;46.57;102146.63;5132205;27;19927;-56
2022/12/27 07:56:44;;;;;;;;;;;;;;;18.26;46.53;102146.63;5133026;28;20283;-56
2022/12/27 07:59:10;;;;;;;;;;;;;;;18.26;46.52;102149.38;5146318;27;19923;-56
2022/12/27 08:02:06;;;;;;;;;;;;;;;18.25;46.58;102148.56;5153745;27;19923;-56
2022/12/27 08:04:21;;;;;;;;;;;;;;;18.27;46.53;102154.69;5128829;27;20018;-56
2022/12/27 08:06:47;;;;;;;;;;;;;;;18.27;46.54;102162.13;5153510;27;19931;-56
2022/12/27 08:09:12;;;;;;;;;;;;;;;18.26;46.52;102168.69;5153341;27;19923;-56
2022/12/27 08:11:38;;;;;;;;;;;;;;;18.26;46.57;102168.69;5153537;27;19923;-56
2022/12/27 08:14:03;;;;;;;;;;;;;;;18.26;46.74;102165.94;5151617;27;20387;-56
2022/12/27 08:16:29;;;;;;;;;;;;;;;18.27;46.68;102156.59;5153519;27;19926;-56
2022/12/27 08:18:54;;;;;;;;;;;;;;;18.26;46.58;102161.28;5153203;27;20343;-56
2022/12/27 08:21:21;;;;;;;;;;;;;;;18.25;46.75;102161.50;5152767;27;19927;-55
2022/12/27 08:23:46;;;;;;;;;;;;;;;18.26;46.55;102154.91;5133693;27;19931;-56
2022/12/27 08:26:12;;;;;;;;;;;;;;;18.26;46.55;102160.41;5153286;27;19984;-56
2022/12/27 08:28:38;;;;;;;;;;;;;;;18.27;46.41;102167.63;5152731;27;20310;-56
2022/12/27 08:31:04;;;;;;;;;;;;;;;18.26;46.66;102163.16;5134477;27;20198;-56
2022/12/27 08:33:30;;;;;;;;;;;;;;;18.26;46.65;102168.69;5152610;27;19923;-56
2022/12/27 08:35:57;;;;;;;;;;;;;;;18.27;46.53;102170.38;5152639;27;19930;-55
2022/12/27 08:38:23;;;;;;;;;;;;;;;18.26;46.48;102174.19;5152975;27;19982;-56
2022/12/27 08:40:48;;;;;;;;;;;;;;;18.26;46.43;102176.97;5161916;27;19927;-56
2022/12/27 08:43:14;;;;;;;;;;;;;;;18.26;46.62;102171.44;5149999;27;19927;-56
2022/12/27 08:45:39;;;;;;;;;;;;;;;18.26;46.49;102185.22;5113551;28;20359;-56
2022/12/27 08:48:05;;;;;;;;;;;;;;;18.25;46.71;102181.63;5132314;28;20260;-56
2022/12/27 08:50:31;;;;;;;;;;;;;;;18.27;46.56;102173.16;5131714;28;19927;-56
2022/12/27 08:52:57;;;;;;;;;;;;;;;18.26;46.50;102171.44;5113198;27;19923;-56
2022/12/27 08:55:24;;;;;;;;;;;;;;;18.27;46.47;102178.66;5113595;28;19927;-56
2022/12/27 08:57:49;;;;;;;;;;;;;;;18.25;46.49;102178.88;5115880;27;19931;-56
2022/12/27 09:00:15;;;;;;;;;;;;;;;18.27;46.44;102168.47;5133428;27;19944;-56
2022/12/27 09:02:41;;;;;;;;;;;;;;;18.26;46.60;102176.97;5145178;27;19927;-56
2022/12/27 09:05:07;;;;;;;;;;;;;;;18.26;46.53;102172.31;5131932;27;20498;-55
2022/12/27 09:07:32;;;;;;;;;;;;;;;18.26;46.71;102168.69;5131856;28;20379;-56
2022/12/27 09:09:58;;;;;;;;;;;;;;;18.26;46.65;102182.47;5131771;28;19927;-56
2022/12/27 09:12:23;;;;;;;;;;;;;;;18.27;46.39;102181.41;5131645;27;19924;-56
2022/12/27 09:14:49;;;;;;;;;;;;;;;18.25;46.41;102178.88;5133336;27;20007;-56
2022/12/27 09:17:14;;;;;;;;;;;;;;;18.26;46.53;102185.22;5131983;28;19924;-56
2022/12/27 09:19:40;;;;;;;;;;;;;;;18.26;46.40;102190.75;5131553;28;19924;-56
2022/12/27 09:22:05;;;;;;;;;;;;;;;18.25;46.51;102184.41;5131801;27;19930;-56
2022/12/27 09:24:31;;;;;;;;;;;;;;;18.25;46.60;102189.91;5130990;27;19951;-56
2022/12/27 09:26:57;;;;;;;;;;;;;;;18.26;46.53;102193.50;5131589;28;19935;-56
2022/12/27 09:29:22;;;;;;;;;;;;;;;18.25;46.42;102192.66;5146821;27;19972;-56
2022/12/27 09:31:48;;;;;;;;;;;;;;;18.26;46.57;102196.25;5151672;27;19930;-56
2022/12/27 09:34:13;;;;;;;;;;;;;;;18.25;46.57;102198.19;5132310;27;19924;-56
2022/12/27 09:36:39;;;;;;;;;;;;;;;18.26;46.41;102196.25;5151624;27;19927;-54
2022/12/27 09:39:05;;;;;;;;;;;;;;;18.26;46.41;102188.00;5150088;27;19923;-56
2022/12/27 09:41:35;;;;;;;;;;;;;;;18.27;46.74;102195.22;5152117;27;20404;-56
2022/12/27 09:44:40;;;;;;;;;;;;;;;18.27;46.43;102195.22;5127959;27;19923;-56
2022/12/27 09:47:16;;;;;;;;;;;;;;;18.25;46.58;102186.31;5136477;27;19970;-56
2022/12/27 09:49:44;;;;;;;;;;;;;;;18.26;46.59;102185.22;5152039;27;19937;-56
2022/12/27 09:52:11;;;;;;;;;;;;;;;18.27;46.61;102189.69;5133281;27;20330;-56
2022/12/27 09:54:39;;;;;;;;;;;;;;;18.25;46.42;102187.16;5132794;27;19930;-55
2022/12/27 09:57:08;;;;;;;;;;;;;;;18.25;46.40;102181.63;5133283;27;19939;-56
2022/12/27 09:59:47;;;;;;;;;;;;;;;18.26;46.36;102179.72;5151024;27;20316;-56
2022/12/27 10:02:18;;;;;;;;;;;;;;;18.26;46.41;102185.22;5150944;27;19924;-56
2022/12/27 10:04:44;;;;;;;;;;;;;;;18.25;46.40;102178.88;5151083;27;19927;-56
2022/12/27 10:07:50;;;;;;;;;;;;;;;18.25;46.46;102180.81;5136461;27;19930;-56
2022/12/27 10:10:26;;;;;;;;;;;;;;;18.26;46.58;102185.22;5136038;27;19963;-56
2022/12/27 10:12:59;;;;;;;;;;;;;;;18.25;46.37;102192.66;5133664;27;19986;-56
2022/12/27 10:15:47;;;;;;;;;;;;;;;18.26;46.58;102176.97;5130469;28;20201;-56
2022/12/27 10:18:32;;;;;;;;;;;;;;;18.25;46.36;102173.38;5115727;28;20313;-56
2022/12/27 10:21:01;;;;;;;;;;;;;;;18.25;46.45;102184.41;5115276;28;20448;-56
2022/12/27 10:23:28;;;;;;;;;;;;;;;18.27;46.36;102178.66;5125818;27;19966;-58
2022/12/27 10:25:57;;;;;;;;;;;;;;;18.24;46.52;102177.22;5150836;27;20378;-58
2022/12/27 10:28:26;;;;;;;;;;;;;;;18.25;46.58;102167.03;5151291;27;20378;-58
2022/12/27 10:30:52;;;;;;;;;;;;;;;18.25;46.41;102173.38;5151102;27;20062;-58
2022/12/27 10:33:19;;;;;;;;;;;;;;;18.25;46.41;102173.38;5151087;27;20379;-58
2022/12/27 10:35:45;;;;;;;;;;;;;;;18.26;46.33;102175.06;5150814;27;19934;-58
2022/12/27 10:38:11;;;;;;;;;;;;;;;18.25;46.41;102175.28;5150647;27;19923;-59
2022/12/27 10:40:37;;;;;;;;;;;;;;;18.26;46.46;102174.19;5150797;27;19934;-58
2022/12/27 10:43:14;;;;;;;;;;;;;;;18.25;46.43;102165.09;5132872;27;20268;-59
2022/12/27 10:45:41;;;;;;;;;;;;;;;18.25;46.52;102178.88;5129931;28;20008;-59
2022/12/27 10:48:12;;;;;;;;;;;;;;;18.26;46.43;102176.97;5130273;28;19985;-59
2022/12/27 10:50:38;;;;;;;;;;;;;;;18.25;46.40;102169.78;5130277;27;19970;-59
2022/12/27 10:53:03;;;;;;;;;;;;;;;18.26;46.44;102174.19;5133861;27;19948;-59
2022/12/27 10:55:30;;;;;;;;;;;;;;;18.26;46.46;102171.44;5133912;28;19923;-58
2022/12/27 10:57:55;;;;;;;;;;;;;;;18.27;46.36;102173.16;5118668;27;19931;-59
2022/12/27 11:00:21;;;;;;;;;;;;;;;18.25;46.44;102178.88;5154282;27;19968;-58
2022/12/27 11:02:48;;;;;;;;;;;;;;;18.26;46.46;102177.81;5127841;28;19934;-58
2022/12/27 11:05:18;;;;;;;;;;;;;;;18.25;46.40;102178.88;5115230;28;20147;-58
2022/12/27 11:07:44;;;;;;;;;;;;;;;18.27;46.31;102184.19;5115506;28;20087;-58
2022/12/27 11:10:15;;;;;;;;;;;;;;;18.25;46.25;102178.88;5133803;28;20286;-59
2022/12/27 11:12:53;;;;;;;;;;;;;;;18.25;46.33;102176.13;5119139;27;19950;-58
2022/12/27 11:15:19;;;;;;;;;;;;;;;18.27;46.38;102182.25;5131852;28;19923;-59
2022/12/27 11:17:45;;;;;;;;;;;;;;;18.25;46.35;102178.06;5133878;27;19931;-58
2022/12/27 11:20:26;;;;;;;;;;;;;;;18.25;46.51;102173.38;5133791;27;19923;-58
2022/12/27 11:23:01;;;;;;;;;;;;;;;18.25;46.51;102167.84;5142101;27;20367;-58
2022/12/27 11:25:27;;;;;;;;;;;;;;;18.25;46.24;102170.59;5153555;27;20378;-59
2022/12/27 11:27:54;;;;;;;;;;;;;;;18.25;46.34;102165.09;5153440;27;19980;-58
2022/12/27 11:30:21;;;;;;;;;;;;;;;18.27;46.38;102170.38;5135227;27;20382;-58
2022/12/27 11:32:47;;;;;;;;;;;;;;;18.26;46.40;102169.56;5154018;27;20363;-58
2022/12/27 11:35:15;;;;;;;;;;;;;;;18.27;46.39;102173.16;5153825;27;19969;-58
2022/12/27 11:37:41;;;;;;;;;;;;;;;18.25;46.29;102175.28;5154187;27;19927;-59
2022/12/27 11:40:12;;;;;;;;;;;;;;;18.25;46.36;102173.38;5153679;27;19926;-58
2022/12/27 11:42:39;;;;;;;;;;;;;;;18.25;46.51;102175.28;5144116;27;20008;-58
2022/12/27 11:45:09;;;;;;;;;;;;;;;18.26;46.45;102174.19;5132473;27;19927;-58
2022/12/27 11:47:38;;;;;;;;;;;;;;;18.25;46.50;102170.59;5114704;28;19924;-58
2022/12/27 11:50:23;;;;;;;;;;;;;;;18.27;46.33;102178.66;5132850;28;19953;-58
2022/12/27 11:53:09;;;;;;;;;;;;;;;18.26;46.50;102179.72;5117468;28;19924;-58
2022/12/27 11:55:54;;;;;;;;;;;;;;;18.25;46.17;102181.63;5117409;28;19972;-58
2022/12/27 11:58:39;;;;;;;;;;;;;;;18.25;46.27;102175.28;5124118;27;19923;-59
2022/12/27 12:01:13;;;;;;;;;;;;;;;18.25;46.32;102178.06;5138041;27;20355;-59
2022/12/27 12:03:43;;;;;;;;;;;;;;;18.25;46.37;102175.28;5152706;27;19931;-58
2022/12/27 12:09:06;;;;;;;;;;;;;;;18.25;46.43;102169.78;5190123;27;19929;-56
2022/12/27 12:11:39;;;;;;;;;;;;;;;18.26;46.48;102163.16;5183089;27;19938;-56
2022/12/27 12:14:24;;;;;;;;;;;;;;;18.26;46.28;102154.91;5169686;27;19946;-56
2022/12/27 12:17:07;;;;;;;;;;;;;;;18.25;46.27;102154.06;5153388;27;19927;-56
2022/12/27 12:19:52;;;;;;;;;;;;;;;18.25;46.48;102154.06;5168944;27;19958;-56
2022/12/27 12:22:23;;;;;;;;;;;;;;;18.26;46.42;102154.91;5152803;27;19963;-56
2022/12/27 12:25:00;;;;;;;;;;;;;;;18.25;46.25;102145.78;5168018;27;19930;-55
2022/12/27 12:27:27;;;;;;;;;;;;;;;18.26;46.35;102149.38;5168639;27;20144;-56
2022/12/27 12:29:59;;;;;;;;;;;;;;;18.25;46.28;102153.22;5188451;27;19957;-56
2022/12/27 12:32:30;;;;;;;;;;;;;;;18.26;46.26;102147.50;5181834;27;19927;-56
2022/12/27 12:35:02;;;;;;;;;;;;;;;18.26;46.46;102149.38;5166221;27;20343;-56
2022/12/27 12:37:48;;;;;;;;;;;;;;;18.25;46.35;102143.03;5168413;27;20196;-56
2022/12/27 12:40:33;;;;;;;;;;;;;;;18.27;46.39;102140.06;5162186;27;19990;-56
2022/12/27 12:43:05;;;;;;;;;;;;;;;18.25;46.51;102137.53;5175029;27;19923;-56
2022/12/27 12:45:50;;;;;;;;;;;;;;;18.26;46.34;102138.34;5168031;27;19923;-56
2022/12/27 12:51:03;;;;;;;;;;;;;;;18.27;46.49;102131.78;5190330;27;19949;-56
2022/12/27 12:53:48;;;;;;;;;;;;;;;18.26;46.37;102121.81;5170269;27;19927;-56
2022/12/27 12:56:34;;;;;;;;;;;;;;;18.27;46.29;102115.25;5174086;27;19930;-56
2022/12/27 12:59:05;;;;;;;;;;;;;;;18.25;46.41;102109.94;5173560;27;19926;-56
2022/12/27 13:01:51;;;;;;;;;;;;;;;18.27;46.50;102118.00;5189884;27;19922;-56
2022/12/27 13:04:21;;;;;;;;;;;;;;;18.25;46.45;102109.94;5153702;27;20378;-56
2022/12/27 13:06:58;;;;;;;;;;;;;;;18.26;46.32;102108.03;5150083;27;19927;-55
2022/12/27 13:09:28;;;;;;;;;;;;;;;18.26;46.24;102099.75;5168721;27;19966;-56
2022/12/27 13:11:57;;;;;;;;;;;;;;;18.25;46.34;102098.09;5159949;27;19923;-56
2022/12/27 13:14:32;;;;;;;;;;;;;;;18.25;46.28;102093.41;5129117;27;19923;-56
2022/12/27 13:17:07;;;;;;;;;;;;;;;18.25;46.48;102085.13;5147951;27;19963;-56
2022/12/27 13:19:52;;;;;;;;;;;;;;;18.26;46.31;102083.19;5147865;27;19930;-56
2022/12/27 13:22:22;;;;;;;;;;;;;;;18.25;46.41;102073.25;5132143;27;19930;-56
2022/12/27 13:25:09;;;;;;;;;;;;;;;18.27;46.44;102073.88;5128634;27;20088;-55
2022/12/27 13:27:40;;;;;;;;;;;;;;;18.25;46.27;102063.06;5132245;27;19958;-56
2022/12/27 13:30:16;;;;;;;;;;;;;;;18.26;46.55;102067.53;5167947;27;19927;-56
2022/12/27 13:33:01;;;;;;;;;;;;;;;18.26;46.25;102061.16;5161851;27;19973;-56
2022/12/27 13:35:30;;;;;;;;;;;;;;;18.24;46.46;102058.66;5131718;27;19930;-56
2022/12/27 13:38:03;;;;;;;;;;;;;;;18.26;46.33;102058.38;5147444;27;19931;-56
2022/12/27 13:40:48;;;;;;;;;;;;;;;18.27;46.60;102049.06;5147517;27;19927;-55
2022/12/27 13:43:22;;;;;;;;;;;;;;;18.27;46.49;102049.06;5150056;27;19931;-56
2022/12/27 13:45:50;;;;;;;;;;;;;;;18.27;46.27;102049.06;5167539;27;20335;-56
2022/12/27 13:48:36;;;;;;;;;;;;;;;18.27;46.26;102043.53;5168147;27;19934;-56
2022/12/27 13:54:03;;;;;;;;;;;;;;;18.27;46.15;102046.28;5189445;27;19925;-56
2022/12/27 13:56:34;;;;;;;;;;;;;;;18.26;46.41;102033.56;5174240;27;19926;-56
2022/12/27 13:59:39;;;;;;;;;;;;;;;18.25;46.46;102029.97;5144080;27;19923;-56
2022/12/27 14:02:25;;;;;;;;;;;;;;;18.26;46.45;102028.06;5153191;27;19969;-56
2022/12/27 14:04:54;;;;;;;;;;;;;;;18.25;46.33;102031.91;5152940;27;19930;-56
2022/12/27 14:07:29;;;;;;;;;;;;;;;18.25;46.39;102035.50;5168664;27;19974;-55
2022/12/27 14:10:15;;;;;;;;;;;;;;;18.25;46.50;102029.97;5168160;27;19987;-56
2022/12/27 14:12:50;;;;;;;;;;;;;;;18.25;46.39;102032.75;5145626;27;20365;-56
2022/12/27 14:15:17;;;;;;;;;;;;;;;18.25;46.39;102032.75;5167720;27;19930;-56
2022/12/27 14:17:53;;;;;;;;;;;;;;;18.26;46.28;102030.81;5168786;27;20446;-56
2022/12/27 14:20:25;;;;;;;;;;;;;;;18.26;46.27;102031.69;5168635;27;20334;-56
2022/12/27 14:23:09;;;;;;;;;;;;;;;18.27;46.23;102038.03;5168463;27;19968;-56
2022/12/27 14:25:54;;;;;;;;;;;;;;;18.26;46.40;102033.56;5168537;27;19927;-56
2022/12/27 14:28:40;;;;;;;;;;;;;;;18.27;46.45;102032.50;5145767;27;19993;-56
2022/12/27 14:31:26;;;;;;;;;;;;;;;18.25;46.34;102029.97;5132121;27;19977;-56
2022/12/27 14:34:00;;;;;;;;;;;;;;;18.25;46.49;102024.47;5139411;27;20498;-56
2022/12/27 14:36:45;;;;;;;;;;;;;;;18.26;46.23;102022.53;5168423;27;19954;-56
2022/12/27 14:39:18;;;;;;;;;;;;;;;18.26;46.49;102019.78;5152489;27;20389;-56